Time;durP1;ratioP1;P1;durP2;ratioP2;P2;SDS_P1;SDS_P2;PMS_P1;PMS_P2;Temp;Humidity;BMP_temperature;BMP_pressure;BME280_temperature;BME280_humidity;BME280_pressure;Samples;Min_cycle;Max_cycle;Signal;HPM_P1;HPM_P2
2023/11/02 00:00:37;;;;;;;14.23;2.80;;;;;;;12.62;100.00;98197.09;4935634;28;20060;-62
2023/11/02 00:03:05;;;;;;;12.90;2.42;;;;;;;12.58;100.00;98182.47;4934940;29;20051;-62
2023/11/02 00:05:39;;;;;;;13.63;2.53;;;;;;;12.53;100.00;98178.13;4963972;28;20047;-61
2023/11/02 00:08:08;;;;;;;18.48;3.47;;;;;;;12.51;100.00;98177.72;4933546;28;20060;-62
2023/11/02 00:10:35;;;;;;;14.20;3.13;;;;;;;12.57;100.00;98165.09;4983179;28;20504;-62
2023/11/02 00:13:02;;;;;;;15.38;3.15;;;;;;;12.59;100.00;98135.13;4951710;29;20055;-62
2023/11/02 00:15:30;;;;;;;18.23;3.65;;;;;;;12.65;100.00;98133.59;4951958;29;20048;-62
2023/11/02 00:18:00;;;;;;;12.73;2.90;;;;;;;12.31;100.00;98123.97;4944630;29;20043;-62
2023/11/02 00:20:32;;;;;;;18.05;3.08;;;;;;;12.29;100.00;98105.03;4937870;29;20059;-62
2023/11/02 00:23:00;;;;;;;16.67;2.83;;;;;;;12.36;100.00;98084.97;4942709;29;20062;-61
2023/11/02 00:25:40;;;;;;;14.70;3.13;;;;;;;12.30;100.00;98048.69;4937605;29;20452;-63
2023/11/02 00:28:10;;;;;;;18.53;3.10;;;;;;;12.18;100.00;98037.19;4937426;29;20086;-62
2023/11/02 00:30:42;;;;;;;17.50;2.97;;;;;;;12.17;100.00;98028.13;4937770;29;20055;-61
2023/11/02 00:33:09;;;;;;;12.95;2.42;;;;;;;12.23;100.00;97998.97;4937545;29;20446;-61
2023/11/02 00:35:42;;;;;;;15.70;2.60;;;;;;;12.05;100.00;97989.03;4936398;29;20052;-62
2023/11/02 00:38:09;;;;;;;20.27;2.67;;;;;;;11.78;100.00;97979.50;4936203;29;20060;-61
2023/11/02 00:40:36;;;;;;;12.13;2.40;;;;;;;11.84;100.00;97953.91;4937647;29;20051;-62
2023/11/02 00:43:08;;;;;;;15.07;3.15;;;;;;;11.80;100.00;97933.03;4937416;29;20060;-62
2023/11/02 00:45:41;;;;;;;14.07;2.60;;;;;;;11.72;100.00;97907.38;4967494;28;20063;-62
2023/11/02 00:48:15;;;;;;;10.75;2.35;;;;;;;11.96;100.00;97857.00;4952025;29;20056;-62
2023/11/02 00:51:11;;;;;;;16.40;2.67;;;;;;;11.89;100.00;97801.81;4951404;29;20415;-62
2023/11/02 00:53:43;;;;;;;14.68;2.72;;;;;;;11.69;100.00;97813.63;4952410;29;20052;-63
2023/11/02 00:56:11;;;;;;;11.15;2.28;;;;;;;11.81;100.00;97844.38;4952326;28;20059;-62
2023/11/02 00:58:48;;;;;;;13.45;2.17;;;;;;;11.76;100.00;97788.81;4967834;28;20357;-62
2023/11/02 01:01:17;;;;;;;15.77;2.33;;;;;;;11.82;100.00;97779.75;4937389;29;20159;-62
2023/11/02 01:03:50;;;;;;;7.35;1.75;;;;;;;11.66;100.00;97751.78;4952149;28;20056;-62
2023/11/02 01:06:29;;;;;;;12.82;2.45;;;;;;;11.52;100.00;97695.81;4951067;28;20058;-62
2023/11/02 01:09:26;;;;;;;11.05;2.25;;;;;;;11.62;100.00;97670.22;4934920;29;20062;-62
2023/11/02 01:11:53;;;;;;;14.02;2.03;;;;;;;11.52;100.00;97593.84;4967578;28;20070;-61
2023/11/02 01:14:30;;;;;;;11.27;2.28;;;;;;;11.58;100.00;97584.75;4967455;28;20066;-62
2023/11/02 01:16:57;;;;;;;16.50;2.92;;;;;;;11.59;100.00;97505.63;4937640;29;20050;-63
2023/11/02 01:19:40;;;;;;;11.32;2.47;;;;;;;11.61;100.00;97484.72;4973781;28;20600;-61
2023/11/02 01:22:54;;;;;;;8.10;1.67;;;;;;;11.56;100.00;97525.72;4940039;29;20055;-61
2023/11/02 01:25:25;;;;;;;11.20;2.47;;;;;;;11.64;100.00;97549.31;4908792;29;20060;-62
2023/11/02 01:28:08;;;;;;;11.30;2.25;;;;;;;11.74;100.00;97532.00;4970126;28;20059;-62
2023/11/02 01:30:38;;;;;;;11.50;2.20;;;;;;;11.82;100.00;97506.75;4946879;28;20059;-62
2023/11/02 01:33:43;;;;;;;9.57;1.88;;;;;;;11.66;100.00;97555.25;4951048;29;20067;-62
2023/11/02 01:36:21;;;;;;;10.63;2.13;;;;;;;11.60;100.00;97563.09;4934995;29;20699;-63
2023/11/02 01:38:50;;;;;;;11.25;2.45;;;;;;;11.92;100.00;97532.72;4936447;29;20052;-62
2023/11/02 01:41:32;;;;;;;8.77;1.73;;;;;;;12.02;100.00;97510.63;4936013;29;20050;-62
2023/11/02 01:44:15;;;;;;;9.73;2.00;;;;;;;12.06;100.00;97522.44;4950387;29;20110;-63
2023/11/02 01:47:01;;;;;;;11.18;1.75;;;;;;;12.13;100.00;97480.22;4950740;28;20055;-62
2023/11/02 01:49:51;;;;;;;10.07;2.08;;;;;;;12.23;100.00;97479.38;4936322;29;20058;-62
2023/11/02 01:52:32;;;;;;;8.73;1.60;;;;;;;12.31;100.00;97476.19;4934514;29;20055;-62
2023/11/02 01:55:19;;;;;;;8.65;1.63;;;;;;;12.27;100.00;97447.81;4967124;28;20047;-62
2023/11/02 01:58:03;;;;;;;10.52;2.13;;;;;;;12.44;100.00;97393.69;4935972;29;20059;-63
2023/11/02 02:00:49;;;;;;;9.40;1.40;;;;;;;12.57;100.00;97480.34;4950357;29;20059;-62
2023/11/02 02:03:27;;;;;;;8.35;1.80;;;;;;;12.55;100.00;97446.06;4936238;29;20070;-62
2023/11/02 02:06:06;;;;;;;9.15;1.30;;;;;;;12.68;100.00;97408.47;4951046;29;20055;-62
2023/11/02 02:08:55;;;;;;;7.90;1.60;;;;;;;12.62;100.00;97383.31;4950977;28;20056;-62
2023/11/02 02:11:25;;;;;;;8.95;1.52;;;;;;;12.58;100.00;97363.22;4934681;29;20063;-62
2023/11/02 02:14:05;;;;;;;;;;;;;;;12.65;100.00;97349.34;4919036;29;20055;-62
2023/11/02 02:17:11;;;;;;;7.30;1.45;;;;;;;12.87;100.00;97316.75;4982421;28;19930;-58
2023/11/02 02:19:50;;;;;;;5.60;1.30;;;;;;;12.83;100.00;97319.56;4908105;29;20500;-61
2023/11/02 02:22:22;;;;;;;7.32;1.80;;;;;;;12.85;100.00;97330.22;4938570;29;20463;-62
2023/11/02 02:25:09;;;;;;;7.30;1.38;;;;;;;12.92;100.00;97332.91;4937085;29;20074;-62
2023/11/02 02:27:49;;;;;;;7.50;1.42;;;;;;;13.00;100.00;97312.28;4940932;29;20039;-62
2023/11/02 02:30:26;;;;;;;10.68;1.30;;;;;;;12.92;100.00;97347.50;4965929;28;20047;-62
2023/11/02 02:33:32;;;;;;;9.82;1.90;;;;;;;12.93;100.00;97326.19;4965085;28;20062;-63
2023/11/02 02:36:18;;;;;;;6.57;1.52;;;;;;;13.04;100.00;97326.91;4934677;28;20068;-62
2023/11/02 02:38:52;;;;;;;6.47;1.20;;;;;;;13.07;100.00;97353.69;4935454;29;20082;-62
2023/11/02 02:41:23;;;;;;;5.30;1.50;;;;;;;13.27;100.00;97325.03;4965911;28;20061;-63
2023/11/02 02:43:52;;;;;;;4.97;1.13;;;;;;;13.30;100.00;97318.66;4934248;29;20048;-62
2023/11/02 02:46:22;;;;;;;3.72;1.10;;;;;;;13.45;100.00;97280.56;4934326;29;20052;-63
2023/11/02 02:48:50;;;;;;;5.88;1.25;;;;;;;13.31;99.20;97308.41;4959966;28;20543;-62
2023/11/02 02:51:19;;;;;;;5.07;1.00;;;;;;;13.36;99.77;97286.63;4965001;28;20055;-61
2023/11/02 02:53:47;;;;;;;6.10;1.58;;;;;;;13.25;98.95;97283.19;4965728;28;20051;-62
2023/11/02 02:56:15;;;;;;;7.32;1.23;;;;;;;13.37;97.89;97293.69;4922898;29;20052;-62
2023/11/02 02:59:01;;;;;;;8.48;1.40;;;;;;;13.43;96.83;97286.53;4962203;28;20418;-62
2023/11/02 03:01:34;;;;;;;5.82;1.20;;;;;;;13.40;95.98;97279.06;4935358;29;20055;-61
2023/11/02 03:04:03;;;;;;;2.38;0.80;;;;;;;13.44;95.53;97288.06;4933756;29;20052;-62
2023/11/02 03:06:30;;;;;;;8.75;1.67;;;;;;;13.70;93.93;97281.03;4935293;29;20051;-62
2023/11/02 03:08:59;;;;;;;6.65;1.95;;;;;;;13.63;93.63;97267.28;4949771;28;20054;-61
2023/11/02 03:11:27;;;;;;;5.78;1.23;;;;;;;13.67;92.97;97258.94;4933380;29;20499;-62
2023/11/02 03:13:56;;;;;;;6.35;1.10;;;;;;;13.69;91.60;97248.22;4933289;29;20062;-62
2023/11/02 03:16:26;;;;;;;6.20;0.98;;;;;;;13.55;90.91;97235.41;4933246;29;20066;-63
2023/11/02 03:18:53;;;;;;;2.67;0.85;;;;;;;13.68;90.30;97230.09;4937070;29;20074;-62
2023/11/02 03:21:21;;;;;;;4.88;1.05;;;;;;;13.79;89.04;97239.78;4934380;29;20074;-61
2023/11/02 03:23:59;;;;;;;4.47;0.77;;;;;;;14.00;87.72;97219.31;4933833;29;20063;-62
2023/11/02 03:26:45;;;;;;;7.18;1.20;;;;;;;14.04;86.32;97242.94;4963329;28;20059;-62
2023/11/02 03:29:43;;;;;;;5.53;0.82;;;;;;;14.08;84.62;97242.88;4965561;28;20051;-62
2023/11/02 03:32:30;;;;;;;4.70;1.02;;;;;;;14.08;84.94;97217.97;4934073;29;20051;-62
2023/11/02 03:35:04;;;;;;;4.88;1.10;;;;;;;14.09;84.78;97242.47;4964558;28;20455;-62
2023/11/02 03:37:37;;;;;;;5.25;1.15;;;;;;;14.13;82.68;97247.94;4965077;28;20059;-61
2023/11/02 03:40:25;;;;;;;7.60;1.40;;;;;;;14.16;82.62;97247.88;4964870;28;20588;-62
2023/11/02 03:43:01;;;;;;;8.30;1.13;;;;;;;14.02;82.52;97250.88;4964948;28;20059;-63
2023/11/02 03:45:46;;;;;;;9.90;1.88;;;;;;;13.96;82.26;97249.81;4964461;28;20056;-62
2023/11/02 03:48:14;;;;;;;10.02;1.85;;;;;;;14.15;81.36;97238.03;4941045;29;20149;-62
2023/11/02 03:50:50;;;;;;;13.82;2.13;;;;;;;14.25;81.67;97231.50;4965563;28;20667;-61
2023/11/02 03:53:42;;;;;;;10.38;1.90;;;;;;;14.27;80.97;97222.81;4948071;29;20051;-62
2023/11/02 03:56:12;;;;;;;13.38;1.60;;;;;;;14.23;81.38;97227.59;4932696;29;20074;-62
2023/11/02 03:59:36;;;;;;;16.70;2.47;;;;;;;14.41;81.35;97223.34;4933741;29;20051;-62
2023/11/02 04:02:09;;;;;;;12.90;2.15;;;;;;;14.21;82.64;97221.72;4931613;29;20082;-62
2023/11/02 04:04:40;;;;;;;18.15;2.42;;;;;;;14.18;84.27;97228.88;4934452;29;20055;-62
2023/11/02 04:07:22;;;;;;;16.33;2.90;;;;;;;14.28;85.03;97261.16;4934365;29;20067;-62
2023/11/02 04:09:57;;;;;;;18.48;3.30;;;;;;;14.44;85.36;97274.31;4931857;29;20099;-62
2023/11/02 04:12:35;;;;;;;19.25;3.50;;;;;;;14.05;89.97;97329.53;4933278;29;20059;-62
2023/11/02 04:15:03;;;;;;;14.57;2.70;;;;;;;13.95;91.74;97281.41;4934659;29;20059;-63
2023/11/02 04:17:31;;;;;;;10.68;2.55;;;;;;;13.98;90.15;97249.38;4937907;29;20051;-62
2023/11/02 04:19:58;;;;;;;8.27;1.67;;;;;;;13.93;87.97;97227.72;4935427;29;20048;-62
2023/11/02 04:22:26;;;;;;;10.25;1.65;;;;;;;13.79;88.83;97189.22;4938758;29;20055;-62
2023/11/02 04:24:53;;;;;;;6.72;1.23;;;;;;;13.75;88.70;97221.69;4934325;29;20067;-62
2023/11/02 04:27:21;;;;;;;8.48;1.50;;;;;;;13.76;86.15;97235.09;4952941;28;20052;-63
2023/11/02 04:29:48;;;;;;;8.77;1.20;;;;;;;13.83;85.39;97226.69;4936547;29;20055;-62
2023/11/02 04:32:15;;;;;;;8.27;1.70;;;;;;;13.66;86.25;97196.53;4948410;29;20047;-62
2023/11/02 04:34:42;;;;;;;11.63;2.22;;;;;;;13.69;89.42;97203.97;4933689;29;20051;-61
2023/11/02 04:37:16;;;;;;;13.63;2.13;;;;;;;13.62;90.46;97198.56;4933990;29;20678;-63
2023/11/02 04:39:44;;;;;;;12.95;2.28;;;;;;;13.65;91.78;97200.50;4934339;29;20384;-63
2023/11/02 04:42:11;;;;;;;18.58;2.38;;;;;;;13.53;92.01;97199.09;4934386;29;20595;-62
2023/11/02 04:44:40;;;;;;;17.58;2.83;;;;;;;13.52;92.64;97194.78;4934050;29;20086;-62
2023/11/02 04:47:07;;;;;;;13.40;2.90;;;;;;;13.72;91.98;97173.50;4933540;29;20051;-63
2023/11/02 04:49:35;;;;;;;16.25;2.70;;;;;;;13.44;92.70;97185.78;4964285;28;20059;-62
2023/11/02 04:52:04;;;;;;;16.00;2.70;;;;;;;13.65;92.39;97201.28;4948493;28;20058;-63
2023/11/02 04:54:32;;;;;;;17.50;3.38;;;;;;;13.65;91.89;97200.50;4947817;29;20059;-62
2023/11/02 04:57:00;;;;;;;15.55;3.10;;;;;;;13.43;92.05;97192.53;4933770;29;20056;-63
2023/11/02 04:59:31;;;;;;;19.75;3.45;;;;;;;13.42;91.77;97202.00;4937434;29;20052;-63
2023/11/02 05:01:58;;;;;;;21.17;3.45;;;;;;;13.56;90.25;97182.44;4936963;29;20510;-63
2023/11/02 05:04:26;;;;;;;14.55;3.25;;;;;;;13.65;89.89;97200.50;4937170;29;20059;-62
2023/11/02 05:06:53;;;;;;;16.73;3.30;;;;;;;13.55;87.69;97200.25;4936962;29;20059;-62
2023/11/02 05:09:21;;;;;;;19.30;2.58;;;;;;;13.51;87.14;97182.91;4936724;29;20047;-62
2023/11/02 05:11:48;;;;;;;17.60;3.33;;;;;;;13.51;87.66;97191.22;4936888;29;20063;-62
2023/11/02 05:14:16;;;;;;;13.48;2.28;;;;;;;13.49;86.48;97201.91;4936522;29;20052;-62
2023/11/02 05:16:43;;;;;;;20.52;3.83;;;;;;;13.43;86.32;97198.06;4936574;29;20052;-62
2023/11/02 05:19:11;;;;;;;14.80;2.90;;;;;;;13.45;85.44;97181.06;4950224;28;20043;-62
2023/11/02 05:21:38;;;;;;;18.83;3.33;;;;;;;13.48;85.23;97199.56;4939828;29;20648;-63
2023/11/02 05:24:06;;;;;;;17.75;2.72;;;;;;;13.61;85.81;97192.25;4935771;29;20051;-63
2023/11/02 05:26:33;;;;;;;16.92;3.53;;;;;;;13.67;84.15;97187.81;4936297;29;20059;-61
2023/11/02 05:29:00;;;;;;;18.20;3.17;;;;;;;13.47;84.73;97173.91;4936546;29;20064;-62
2023/11/02 05:31:27;;;;;;;19.42;2.72;;;;;;;13.69;83.83;97170.78;4936826;29;20048;-63
2023/11/02 05:33:55;;;;;;;16.05;2.75;;;;;;;13.72;82.75;97150.63;4967507;28;20157;-61
2023/11/02 05:36:25;;;;;;;16.77;2.63;;;;;;;13.50;83.53;97167.53;4936161;29;20052;-63
2023/11/02 05:38:52;;;;;;;19.45;3.95;;;;;;;13.42;84.26;97157.78;4963488;28;20040;-62
2023/11/02 05:41:20;;;;;;;19.08;3.35;;;;;;;13.44;85.07;97147.09;4967405;28;20052;-62
2023/11/02 05:43:47;;;;;;;20.92;3.50;;;;;;;13.50;84.21;97173.06;4949811;29;20056;-64
2023/11/02 05:46:14;;;;;;;29.67;3.95;;;;;;;13.62;84.54;97141.28;4950989;29;20056;-62
2023/11/02 05:48:42;;;;;;;26.50;3.88;;;;;;;13.89;83.70;97141.22;4936722;29;20039;-63
2023/11/02 05:51:09;;;;;;;19.88;4.03;;;;;;;13.92;82.16;97159.75;4936548;29;20519;-62
2023/11/02 05:53:37;;;;;;;19.40;3.47;;;;;;;13.93;82.27;97162.09;4950865;28;20052;-62
2023/11/02 05:56:04;;;;;;;21.00;3.42;;;;;;;13.80;82.99;97163.91;4935886;29;20048;-63
2023/11/02 05:58:32;;;;;;;21.23;4.20;;;;;;;13.69;81.13;97145.91;4935811;29;20055;-62
2023/11/02 06:00:59;;;;;;;28.45;4.25;;;;;;;13.54;80.32;97148.94;4935053;29;20059;-63
2023/11/02 06:03:26;;;;;;;25.20;3.80;;;;;;;13.60;81.44;97154.72;4935462;29;20059;-63
2023/11/02 06:05:54;;;;;;;19.80;3.78;;;;;;;13.82;81.05;97174.53;4933633;29;20075;-63
2023/11/02 06:08:22;;;;;;;21.25;3.88;;;;;;;13.87;80.71;97160.22;4935806;29;20047;-63
2023/11/02 06:10:50;;;;;;;18.77;3.65;;;;;;;13.93;78.46;97141.97;4935546;29;20082;-62
2023/11/02 06:13:17;;;;;;;20.90;3.80;;;;;;;13.98;79.24;97144.25;4935672;29;20056;-64
2023/11/02 06:15:44;;;;;;;25.55;4.47;;;;;;;13.82;78.59;97155.19;4935132;29;20056;-63
2023/11/02 06:18:13;;;;;;;19.10;4.28;;;;;;;13.94;78.82;97157.34;4935801;29;20404;-64
2023/11/02 06:20:41;;;;;;;22.13;4.22;;;;;;;13.73;77.88;97157.69;4967278;28;20064;-64
2023/11/02 06:23:16;;;;;;;21.63;3.53;;;;;;;13.92;78.74;97134.84;4960973;28;20159;-62
2023/11/02 06:25:46;;;;;;;16.95;3.72;;;;;;;13.91;77.46;97138.81;4936308;29;20047;-63
2023/11/02 06:31:08;;;;;;;19.83;3.58;;;;;;;13.91;76.47;97166.50;4934762;29;20507;-64
2023/11/02 06:33:45;;;;;;;19.42;3.45;;;;;;;14.28;75.29;97167.03;4967288;28;20047;-62
2023/11/02 06:36:14;;;;;;;26.25;3.78;;;;;;;14.13;73.78;97178.75;4943050;28;20082;-66
2023/11/02 06:38:43;;;;;;;23.85;4.15;;;;;;;14.24;74.17;97171.81;4935699;29;20043;-64
2023/11/02 06:41:14;;;;;;;24.75;3.70;;;;;;;14.07;73.95;97172.16;4950489;29;20378;-65
2023/11/02 06:43:42;;;;;;;19.23;3.67;;;;;;;14.06;73.04;97178.88;4936194;29;20067;-63
2023/11/02 06:46:10;;;;;;;17.75;2.70;;;;;;;13.96;72.85;97163.25;4935063;29;20471;-63
2023/11/02 06:48:43;;;;;;;34.10;3.58;;;;;;;14.05;74.36;97166.25;4935078;29;20062;-64
2023/11/02 06:51:21;;;;;;;21.02;3.50;;;;;;;14.08;71.86;97149.59;4943027;28;20055;-63
2023/11/02 06:53:51;;;;;;;18.55;3.88;;;;;;;13.94;72.57;97152.59;4964549;28;20055;-70
2023/11/02 06:56:21;;;;;;;18.77;3.45;;;;;;;13.74;72.72;97173.09;4935458;29;20062;-63
2023/11/02 06:58:48;;;;;;;21.93;3.27;;;;;;;13.63;73.44;97183.53;4935301;29;20051;-63
2023/11/02 07:01:15;;;;;;;18.88;3.40;;;;;;;13.72;74.36;97175.50;4941681;29;20323;-63
2023/11/02 07:03:43;;;;;;;21.20;3.42;;;;;;;13.72;73.98;97172.75;4934781;29;20058;-63
2023/11/02 07:06:13;;;;;;;26.60;3.80;;;;;;;13.59;72.92;97164.25;4952511;28;20039;-63
2023/11/02 07:08:41;;;;;;;19.63;3.40;;;;;;;13.73;74.67;97180.63;4932902;29;20055;-62
2023/11/02 07:11:09;;;;;;;23.10;3.30;;;;;;;13.72;74.73;97195.63;4935076;29;20062;-64
2023/11/02 07:13:36;;;;;;;24.40;3.40;;;;;;;13.89;74.63;97194.59;4964852;28;20062;-62
2023/11/02 07:16:04;;;;;;;17.73;3.35;;;;;;;13.96;75.69;97180.63;4934864;29;20066;-62
2023/11/02 07:18:32;;;;;;;18.95;3.50;;;;;;;13.90;74.96;97196.13;4949759;29;20047;-64
2023/11/02 07:21:02;;;;;;;23.33;4.28;;;;;;;14.02;75.06;97187.22;4947790;28;20044;-63
2023/11/02 07:23:29;;;;;;;23.27;3.78;;;;;;;13.91;74.52;97197.72;4943273;29;20056;-63
2023/11/02 07:25:57;;;;;;;22.13;3.83;;;;;;;14.01;74.27;97202.28;4934377;29;20063;-63
2023/11/02 07:28:29;;;;;;;19.95;4.40;;;;;;;13.97;74.84;97200.75;4934715;29;20043;-62
2023/11/02 07:30:57;;;;;;;;;;;;;;;14.04;75.40;97223.56;4964850;28;20067;-63
2023/11/02 07:33:24;;;;;;;20.60;3.80;;;;;;;13.80;74.99;97222.00;4965760;28;19933;-63
2023/11/02 07:35:51;;;;;;;17.42;3.28;;;;;;;13.88;76.94;97226.19;4934416;29;20070;-63
2023/11/02 07:38:19;;;;;;;19.58;3.95;;;;;;;13.72;76.84;97228.06;4935813;29;20044;-64
2023/11/02 07:40:46;;;;;;;19.63;3.50;;;;;;;13.85;77.62;97248.38;4946853;29;20498;-63
2023/11/02 07:43:19;;;;;;;21.55;3.97;;;;;;;13.75;77.54;97221.69;4965290;28;20047;-62
2023/11/02 07:46:08;;;;;;;24.38;3.30;;;;;;;13.89;77.13;97232.53;4934787;29;20055;-63
2023/11/02 07:48:40;;;;;;;21.48;2.90;;;;;;;13.83;76.14;97207.31;4933665;29;20507;-63
2023/11/02 07:51:08;;;;;;;16.83;2.70;;;;;;;13.99;74.33;97275.84;4932905;29;20062;-67
2023/11/02 07:53:37;;;;;;;15.90;2.80;;;;;;;13.74;72.93;97253.31;4948235;28;20546;-62
2023/11/02 07:56:09;;;;;;;17.05;2.60;;;;;;;14.53;80.14;97242.13;4946948;29;20043;-64
2023/11/02 07:58:36;;;;;;;16.67;2.83;;;;;;;15.52;73.53;97240.91;4928966;29;20047;-62
2023/11/02 08:01:05;;;;;;;14.95;2.65;;;;;;;16.02;69.61;97242.53;4931861;29;20051;-63
2023/11/02 08:03:32;;;;;;;14.27;2.60;;;;;;;15.84;66.44;97254.06;4933230;29;20086;-63
2023/11/02 08:06:00;;;;;;;19.98;4.40;;;;;;;15.73;66.37;97246.00;4932678;29;20052;-61
2023/11/02 08:08:29;;;;;;;18.05;5.00;;;;;;;15.74;67.75;97239.22;4937005;29;20039;-62
2023/11/02 08:10:56;;;;;;;16.42;3.67;;;;;;;15.79;66.59;97235.91;4965416;28;20057;-63
2023/11/02 08:13:23;;;;;;;17.60;3.40;;;;;;;14.99;68.80;97237.69;4933215;29;20051;-62
2023/11/02 08:15:55;;;;;;;17.27;2.88;;;;;;;15.06;70.67;97259.72;4968290;28;20117;-64
2023/11/02 08:18:33;;;;;;;18.15;3.60;;;;;;;15.03;70.01;97247.47;4929003;29;20062;-64
2023/11/02 08:21:08;;;;;;;19.33;3.90;;;;;;;14.86;71.03;97253.38;4949227;28;20051;-65
2023/11/02 08:23:36;;;;;;;17.63;3.58;;;;;;;14.87;69.36;97252.94;4947780;28;20059;-62
2023/11/02 08:26:03;;;;;;;16.58;3.75;;;;;;;14.75;68.31;97250.78;4934832;29;20499;-61
2023/11/02 08:28:30;;;;;;;18.30;3.30;;;;;;;14.96;69.17;97233.00;4930760;29;20059;-61
2023/11/02 08:31:00;;;;;;;24.65;3.72;;;;;;;14.47;66.30;97238.25;4928449;29;20071;-62
2023/11/02 08:33:28;;;;;;;16.38;3.55;;;;;;;14.54;68.03;97235.38;4936117;29;20048;-61
2023/11/02 08:35:55;;;;;;;22.02;3.47;;;;;;;14.77;67.31;97222.69;4974024;28;20420;-61
2023/11/02 08:38:23;;;;;;;18.92;2.92;;;;;;;14.88;67.88;97224.03;4938779;29;20040;-62
2023/11/02 08:40:50;;;;;;;16.77;3.28;;;;;;;14.61;67.00;97213.06;4941121;29;20177;-65
2023/11/02 08:43:17;;;;;;;20.35;3.80;;;;;;;14.73;68.14;97228.31;4940820;29;20055;-63
2023/11/02 08:45:45;;;;;;;21.08;3.40;;;;;;;14.58;65.82;97227.78;4937695;29;20074;-62
2023/11/02 08:48:13;;;;;;;22.20;3.28;;;;;;;14.65;65.93;97243.47;4941636;29;20054;-63
2023/11/02 08:50:40;;;;;;;18.20;3.03;;;;;;;14.89;67.38;97227.59;4936451;28;20062;-61
2023/11/02 08:53:08;;;;;;;18.17;3.67;;;;;;;14.81;66.71;97232.47;4968738;28;20060;-61
2023/11/02 08:55:36;;;;;;;20.50;3.53;;;;;;;14.65;64.55;97249.00;4969281;28;20056;-62
2023/11/02 08:58:04;;;;;;;16.27;2.83;;;;;;;14.46;66.91;97260.84;4939068;29;20051;-61
2023/11/02 09:00:33;;;;;;;15.95;3.17;;;;;;;14.82;68.05;97272.06;4966797;28;20051;-60
2023/11/02 09:03:01;;;;;;;16.77;2.75;;;;;;;14.29;65.67;97264.69;4936344;29;20531;-62
2023/11/02 09:05:28;;;;;;;16.55;2.85;;;;;;;14.21;66.04;97252.94;4967920;28;20059;-61
2023/11/02 09:07:56;;;;;;;16.75;2.40;;;;;;;14.18;66.60;97281.47;4968685;28;20048;-62
2023/11/02 09:10:26;;;;;;;13.30;2.55;;;;;;;14.32;68.58;97283.22;4934179;29;20420;-60
2023/11/02 09:13:01;;;;;;;16.10;2.72;;;;;;;14.41;65.57;97264.88;4939495;29;20522;-61
2023/11/02 09:15:28;;;;;;;16.63;2.92;;;;;;;14.57;65.17;97283.59;4965774;28;20060;-61
2023/11/02 09:17:55;;;;;;;10.93;1.88;;;;;;;14.39;64.13;97258.97;4936304;29;20051;-61
2023/11/02 09:20:24;;;;;;;11.23;2.40;;;;;;;14.47;64.59;97284.56;4966239;28;20043;-61
2023/11/02 09:22:51;;;;;;;13.63;2.25;;;;;;;14.38;63.85;97295.41;4950957;28;20088;-60
2023/11/02 09:25:18;;;;;;;8.65;1.65;;;;;;;14.68;65.80;97296.03;4967500;28;20063;-61
2023/11/02 09:27:47;;;;;;;10.57;1.92;;;;;;;14.68;64.83;97276.66;4967829;28;20051;-60
2023/11/02 09:30:17;;;;;;;8.98;1.77;;;;;;;14.70;63.40;97289.31;4938931;29;20058;-64
2023/11/02 09:32:59;;;;;;;16.17;2.53;;;;;;;14.62;63.16;97303.28;4937809;29;20051;-62
2023/11/02 09:35:27;;;;;;;7.43;1.67;;;;;;;14.54;63.67;97306.56;4953133;28;20059;-61
2023/11/02 09:37:55;;;;;;;11.32;1.67;;;;;;;14.74;64.01;97295.56;4936820;28;20056;-62
2023/11/02 09:40:22;;;;;;;9.02;1.73;;;;;;;15.00;63.17;97302.97;4936290;29;20051;-62
2023/11/02 09:42:52;;;;;;;11.80;1.85;;;;;;;15.17;62.55;97302.63;4966639;28;20048;-63
2023/11/02 09:45:21;;;;;;;10.55;1.92;;;;;;;14.96;63.11;97327.22;4948589;28;20056;-62
2023/11/02 09:47:49;;;;;;;13.25;2.63;;;;;;;14.77;61.83;97328.72;4966020;28;20054;-62
2023/11/02 09:50:16;;;;;;;10.98;2.15;;;;;;;14.71;62.12;97326.88;4940332;29;20466;-63
2023/11/02 09:52:46;;;;;;;16.05;2.85;;;;;;;14.68;63.38;97304.34;4935036;29;20051;-62
2023/11/02 09:55:14;;;;;;;16.83;2.65;;;;;;;14.60;64.89;97327.84;4967652;28;20048;-63
2023/11/02 09:57:42;;;;;;;10.98;2.33;;;;;;;14.81;62.54;97325.91;4933147;29;20496;-62
2023/11/02 10:00:11;;;;;;;17.10;2.97;;;;;;;14.53;63.15;97300.28;4934391;29;20051;-63
2023/11/02 10:02:39;;;;;;;12.77;2.25;;;;;;;14.38;63.08;97309.25;4964002;28;20063;-62
2023/11/02 10:05:08;;;;;;;11.10;2.28;;;;;;;14.58;63.45;97312.84;4947531;28;20530;-62
2023/11/02 10:07:36;;;;;;;9.90;2.03;;;;;;;14.48;63.85;97330.44;4937442;28;20067;-62
2023/11/02 10:10:04;;;;;;;20.92;3.25;;;;;;;14.75;63.92;97325.59;4937932;28;20047;-61
2023/11/02 10:12:37;;;;;;;15.13;2.20;;;;;;;14.77;62.61;97336.28;4965283;28;20060;-61
2023/11/02 10:15:07;;;;;;;14.75;3.03;;;;;;;14.62;60.47;97344.03;4965203;28;20056;-60
2023/11/02 10:17:41;;;;;;;13.30;2.92;;;;;;;14.79;61.80;97350.47;4938111;29;20055;-62
2023/11/02 10:20:19;;;;;;;12.65;2.42;;;;;;;14.51;62.27;97351.75;4940051;29;20051;-62
2023/11/02 10:23:05;;;;;;;23.95;3.72;;;;;;;14.30;62.51;97352.88;4934060;29;20052;-61
2023/11/02 10:25:33;;;;;;;9.57;2.33;;;;;;;14.47;61.40;97323.34;4931926;29;20059;-61
2023/11/02 10:28:01;;;;;;;15.10;2.53;;;;;;;14.36;62.70;97351.22;4933751;29;20466;-61
2023/11/02 10:30:28;;;;;;;14.35;3.63;;;;;;;14.64;64.24;97350.72;4933693;29;20060;-64
2023/11/02 10:33:05;;;;;;;11.35;2.60;;;;;;;14.73;63.90;97360.50;4936940;29;20051;-62
2023/11/02 10:35:33;;;;;;;11.88;1.95;;;;;;;15.07;62.88;97377.69;4940214;29;20454;-62
2023/11/02 10:38:00;;;;;;;15.88;3.00;;;;;;;14.77;62.97;97361.22;4934610;29;20064;-61
2023/11/02 10:40:43;;;;;;;15.80;3.10;;;;;;;14.91;62.77;97358.97;4934891;29;20055;-62
2023/11/02 10:43:18;;;;;;;14.77;2.58;;;;;;;14.67;64.32;97343.56;4932962;29;20055;-65
2023/11/02 10:45:52;;;;;;;9.95;2.42;;;;;;;14.91;63.66;97358.16;4965685;28;20400;-62
2023/11/02 10:48:20;;;;;;;11.75;2.30;;;;;;;14.79;62.48;97353.25;4933595;29;20052;-65
2023/11/02 10:50:50;;;;;;;11.80;2.30;;;;;;;15.13;61.89;97339.97;4938087;29;20542;-61
2023/11/02 10:53:40;;;;;;;14.85;2.60;;;;;;;15.38;62.18;97343.81;4949935;28;20074;-62
2023/11/02 10:56:13;;;;;;;10.80;2.70;;;;;;;15.46;61.71;97361.88;4933107;29;20059;-61
2023/11/02 10:58:41;;;;;;;18.67;3.30;;;;;;;15.18;59.94;97337.47;4965403;28;20057;-63
2023/11/02 11:01:11;;;;;;;16.77;2.97;;;;;;;14.70;62.49;97348.25;4935966;29;20044;-63
2023/11/02 11:03:39;;;;;;;13.88;2.92;;;;;;;14.94;61.67;97354.56;4934174;29;20550;-62
2023/11/02 11:06:11;;;;;;;16.40;2.95;;;;;;;15.12;61.50;97355.81;4933046;29;20454;-62
2023/11/02 11:08:51;;;;;;;14.25;2.95;;;;;;;14.86;60.63;97365.00;4933489;29;20050;-63
2023/11/02 11:11:19;;;;;;;14.43;3.00;;;;;;;15.04;61.76;97364.69;4965799;28;20051;-62
2023/11/02 11:13:51;;;;;;;14.38;4.00;;;;;;;15.16;61.17;97381.47;4930455;29;20409;-61
2023/11/02 11:16:19;;;;;;;17.70;4.78;;;;;;;14.81;58.84;97384.88;4948731;28;20054;-61
2023/11/02 11:18:49;;;;;;;14.82;4.03;;;;;;;15.09;60.71;97375.28;4930001;29;20047;-65
2023/11/02 11:21:18;;;;;;;16.95;3.13;;;;;;;15.16;59.47;97375.16;4935226;29;20070;-62
2023/11/02 11:23:46;;;;;;;19.13;5.85;;;;;;;15.22;59.88;97385.31;4963854;28;20059;-62
2023/11/02 11:26:16;;;;;;;14.05;4.72;;;;;;;15.45;59.74;97395.59;4965695;28;20054;-63
2023/11/02 11:28:57;;;;;;;19.25;6.40;;;;;;;15.54;58.36;97401.38;4961456;28;20051;-61
2023/11/02 11:31:51;;;;;;;19.95;4.22;;;;;;;15.44;59.32;97392.06;4945814;29;20051;-64
2023/11/02 11:34:19;;;;;;;12.48;2.67;;;;;;;15.48;57.36;97403.09;4929170;29;20055;-61
2023/11/02 11:36:49;;;;;;;16.30;3.30;;;;;;;15.64;58.39;97403.16;4928888;29;20044;-62
2023/11/02 11:39:36;;;;;;;14.65;2.85;;;;;;;15.23;58.36;97384.13;4933400;29;21918;-61
2023/11/02 11:42:04;;;;;;;14.50;3.00;;;;;;;15.11;56.68;97392.25;4933076;29;20051;-64
2023/11/02 11:44:31;;;;;;;13.25;2.83;;;;;;;15.16;58.19;97405.63;4965179;28;20051;-64
2023/11/02 11:47:00;;;;;;;13.60;2.83;;;;;;;15.16;57.04;97417.53;4934299;29;20051;-63
2023/11/02 11:49:32;;;;;;;12.55;2.70;;;;;;;15.31;57.33;97410.50;4937304;29;20059;-62
2023/11/02 11:52:01;;;;;;;14.20;3.80;;;;;;;15.58;58.39;97380.69;4932764;29;20055;-63